createdAt,value
2018-07-28T00:04:24.457Z,21.40
2018-07-28T00:09:29.314Z,21.40
2018-07-28T00:14:34.166Z,21.30
2018-07-28T00:19:39.204Z,21.20
2018-07-28T00:24:44.702Z,21.10
2018-07-28T00:29:49.493Z,21.00
2018-07-28T00:34:54.215Z,20.80
2018-07-28T00:39:58.808Z,20.60
2018-07-28T00:45:04.009Z,20.40
2018-07-28T00:50:09.571Z,20.40
2018-07-28T00:55:14.272Z,20.30
2018-07-28T01:00:19.044Z,20.20
2018-07-28T01:05:24.593Z,20.10
2018-07-28T01:10:29.413Z,19.80
2018-07-28T01:15:34.130Z,19.60
2018-07-28T01:20:38.899Z,19.60
2018-07-28T01:25:43.911Z,19.70
2018-07-28T01:30:48.785Z,19.70
2018-07-28T01:35:53.833Z,19.70
2018-07-28T01:40:58.642Z,19.60
2018-07-28T01:46:03.604Z,19.60
2018-07-28T01:51:08.565Z,19.60
2018-07-28T01:56:13.304Z,19.50
2018-07-28T02:01:18.087Z,19.40
2018-07-28T02:06:23.059Z,19.40
2018-07-28T02:11:27.882Z,19.40
2018-07-28T02:16:34.063Z,19.40
2018-07-28T02:21:38.886Z,19.40
2018-07-28T02:26:43.646Z,19.40
2018-07-28T02:31:48.846Z,19.10
2018-07-28T02:42:04.506Z,18.70
2018-07-28T02:47:09.352Z,18.40
2018-07-28T02:52:14.573Z,18.30
2018-07-28T02:57:19.578Z,18.30
2018-07-28T03:02:25.352Z,18.10
2018-07-28T03:07:30.101Z,18.00
2018-07-28T03:12:34.958Z,18.10
2018-07-28T03:17:39.910Z,17.90
2018-07-28T03:22:44.489Z,17.80
2018-07-28T03:27:49.400Z,17.80
2018-07-28T03:32:54.521Z,17.80
2018-07-28T03:37:59.521Z,17.80
2018-07-28T03:43:04.386Z,17.80
2018-07-28T03:53:13.606Z,17.80
2018-07-28T03:58:18.541Z,17.60
2018-07-28T04:03:23.445Z,17.50
2018-07-28T04:08:28.383Z,17.50
2018-07-28T04:13:33.220Z,17.40
2018-07-28T04:18:37.940Z,17.40
2018-07-28T04:23:43.103Z,17.60
2018-07-28T04:28:47.812Z,17.70
2018-07-28T04:33:52.568Z,17.80
2018-07-28T04:38:57.294Z,18.00
2018-07-28T04:44:02.161Z,18.40
2018-07-28T04:49:07.953Z,18.70
2018-07-28T04:54:12.892Z,19.00
2018-07-28T04:59:17.673Z,19.30
2018-07-28T05:04:22.753Z,19.60
2018-07-28T05:09:27.543Z,19.70
2018-07-28T05:14:33.241Z,19.80
2018-07-28T05:19:38.274Z,19.70
2018-07-28T05:24:43.217Z,19.60
2018-07-28T05:29:48.139Z,19.60
2018-07-28T05:34:52.998Z,19.70
2018-07-28T05:39:57.709Z,20.00
2018-07-28T05:45:02.965Z,20.30
2018-07-28T05:50:09.097Z,20.80
2018-07-28T05:55:14.300Z,21.30
2018-07-28T06:00:20.144Z,21.70
2018-07-28T06:05:25.050Z,22.00
2018-07-28T06:10:30.116Z,22.40
2018-07-28T06:15:35.801Z,22.60
2018-07-28T06:20:41.161Z,22.70
2018-07-28T06:30:53.577Z,22.70
2018-07-28T06:35:58.307Z,22.50
2018-07-28T06:41:03.079Z,23.00
2018-07-28T06:51:12.621Z,24.20
2018-07-28T06:56:17.533Z,24.50
2018-07-28T07:01:22.437Z,24.30
2018-07-28T07:06:27.151Z,24.20
2018-07-28T07:11:32.425Z,24.20
2018-07-28T07:16:37.449Z,24.10
2018-07-28T07:21:42.116Z,24.10
2018-07-28T07:26:46.983Z,24.30
2018-07-28T07:31:51.817Z,24.00
2018-07-28T07:36:56.654Z,23.60
2018-07-28T07:42:01.826Z,23.10
2018-07-28T07:47:06.754Z,22.90
2018-07-28T07:52:12.608Z,22.80
2018-07-28T07:57:17.578Z,22.70
2018-07-28T08:02:22.364Z,22.50
2018-07-28T08:07:27.260Z,22.50
2018-07-28T08:12:31.816Z,22.80
2018-07-28T08:17:36.711Z,22.90
2018-07-28T08:22:41.450Z,23.00
2018-07-28T08:27:46.419Z,23.10
2018-07-28T08:32:51.768Z,23.10
2018-07-28T08:37:56.645Z,23.30
2018-07-28T08:43:01.634Z,23.40
2018-07-28T08:48:06.553Z,23.40
2018-07-28T08:53:11.899Z,23.40
2018-07-28T08:58:16.724Z,23.40
2018-07-28T09:03:21.819Z,23.50
2018-07-28T09:08:27.291Z,23.40
2018-07-28T09:13:32.433Z,23.40
2018-07-28T09:18:38.041Z,23.40
2018-07-28T09:23:43.172Z,23.20
2018-07-28T09:28:48.123Z,22.90
2018-07-28T09:33:52.939Z,23.10
2018-07-28T09:38:57.638Z,23.20
2018-07-28T09:44:02.334Z,23.30
2018-07-28T09:49:07.340Z,23.40
2018-07-28T09:54:11.916Z,23.60
2018-07-28T09:59:17.167Z,23.90
2018-07-28T10:04:21.996Z,24.00
2018-07-28T10:09:26.826Z,24.50
2018-07-28T10:14:31.522Z,25.30
2018-07-28T10:19:36.419Z,25.20
2018-07-28T10:24:41.093Z,25.40
2018-07-28T10:29:46.069Z,26.60
2018-07-28T10:34:50.876Z,27.10
2018-07-28T10:39:55.895Z,26.90
2018-07-28T10:45:03.391Z,27.50
2018-07-28T10:50:08.337Z,27.50
2018-07-28T10:55:13.529Z,27.90
2018-07-28T11:00:19.144Z,28.80
2018-07-28T11:05:23.869Z,29.30
2018-07-28T11:10:28.673Z,30.20
2018-07-28T11:15:33.486Z,31.20
2018-07-28T11:20:38.284Z,31.10
2018-07-28T11:25:43.606Z,31.10
2018-07-28T11:30:48.542Z,30.10
2018-07-28T11:36:04.157Z,30.40
2018-07-28T11:41:19.957Z,30.80
2018-07-28T11:46:24.761Z,30.40
2018-07-28T11:51:30.356Z,30.80
2018-07-28T11:56:35.236Z,29.60
2018-07-28T12:01:40.789Z,28.40
2018-07-28T12:06:45.440Z,28.40
2018-07-28T12:11:50.495Z,28.80
2018-07-28T12:16:55.839Z,28.50
2018-07-28T12:22:00.575Z,28.90
2018-07-28T12:27:05.191Z,28.40
2018-07-28T12:32:10.164Z,28.40
2018-07-28T12:37:14.994Z,28.20
2018-07-28T12:42:21.026Z,28.60
2018-07-28T12:47:25.565Z,28.20
2018-07-28T12:52:30.601Z,27.90
2018-07-28T12:57:35.249Z,27.30
2018-07-28T13:02:40.215Z,27.40
2018-07-28T13:07:45.040Z,27.00
2018-07-28T13:12:49.777Z,27.00
2018-07-28T13:17:55.099Z,27.00
2018-07-28T13:23:00.600Z,27.10
2018-07-28T13:28:05.314Z,27.50
2018-07-28T13:33:10.461Z,28.00
2018-07-28T13:38:15.444Z,28.30
2018-07-28T13:43:20.273Z,28.90
2018-07-28T13:48:25.088Z,29.20
2018-07-28T13:53:29.890Z,29.10
2018-07-28T13:58:34.670Z,28.30
2018-07-28T14:03:40.260Z,27.90
2018-07-28T14:08:45.412Z,26.70
2018-07-28T14:13:50.184Z,26.90
2018-07-28T14:18:55.287Z,27.00
2018-07-28T14:24:00.351Z,26.60
2018-07-28T14:29:05.227Z,26.60
2018-07-28T14:34:10.473Z,26.60
2018-07-28T14:39:15.628Z,26.60
2018-07-28T14:44:20.465Z,26.60
2018-07-28T14:49:25.416Z,26.70
2018-07-28T14:54:30.531Z,26.40
2018-07-28T14:59:35.480Z,25.90
2018-07-28T15:04:40.298Z,25.10
2018-07-28T15:09:45.264Z,24.50
2018-07-28T15:14:50.130Z,24.80
2018-07-28T15:19:54.845Z,25.00
2018-07-28T15:24:59.804Z,25.40
2018-07-28T15:30:05.134Z,25.30
2018-07-28T15:35:10.205Z,25.10
2018-07-28T15:40:15.141Z,25.50
2018-07-28T15:45:20.145Z,26.10
2018-07-28T15:50:25.530Z,25.60
2018-07-28T15:55:30.353Z,25.00
2018-07-28T16:00:35.231Z,24.80
2018-07-28T16:05:40.125Z,24.80
2018-07-28T16:10:45.775Z,24.70
2018-07-28T16:15:50.534Z,24.50
2018-07-28T16:20:55.804Z,24.20
2018-07-28T16:26:01.015Z,24.10
2018-07-28T16:31:06.195Z,24.10
2018-07-28T16:36:11.238Z,24.10
2018-07-28T16:41:16.184Z,23.70
2018-07-28T16:46:20.973Z,23.40
2018-07-28T16:51:25.713Z,23.30
2018-07-28T16:56:30.696Z,23.40
2018-07-28T17:01:35.628Z,23.40
2018-07-28T17:06:41.082Z,23.10
2018-07-28T17:11:45.765Z,23.00
2018-07-28T17:16:51.156Z,22.90
2018-07-28T17:21:56.155Z,22.80
2018-07-28T17:27:01.153Z,22.80
2018-07-28T17:32:06.086Z,22.80
2018-07-28T17:37:11.023Z,22.80
2018-07-28T17:42:15.944Z,22.80
2018-07-28T17:47:21.016Z,22.80
2018-07-28T17:52:25.723Z,22.80
2018-07-28T17:57:30.751Z,22.70
2018-07-28T18:02:35.469Z,22.70
2018-07-28T18:07:40.263Z,22.90
2018-07-28T18:12:45.226Z,22.90
2018-07-28T18:17:50.136Z,22.80
2018-07-28T18:22:55.344Z,22.50
2018-07-28T18:28:00.334Z,22.20
2018-07-28T18:33:05.707Z,22.30
2018-07-28T18:39:13.383Z,22.30
2018-07-28T18:44:18.339Z,22.40
2018-07-28T18:49:23.169Z,22.40
2018-07-28T18:54:27.880Z,22.30
2018-07-28T18:59:32.534Z,22.20
2018-07-28T19:04:37.307Z,22.10
2018-07-28T19:09:50.131Z,22.00
2018-07-28T19:14:55.204Z,22.00
2018-07-28T19:20:00.213Z,21.90
2018-07-28T19:25:05.625Z,21.70
2018-07-28T19:30:10.774Z,21.60
2018-07-28T19:35:15.497Z,21.60
2018-07-28T19:40:20.459Z,21.50
2018-07-28T19:45:25.239Z,21.40
2018-07-28T19:50:30.206Z,21.40
2018-07-28T19:55:35.094Z,21.30
2018-07-28T20:00:39.873Z,21.00
2018-07-28T20:05:45.822Z,20.80
2018-07-28T20:10:52.263Z,20.60
2018-07-28T20:15:57.188Z,20.50
2018-07-28T20:21:02.434Z,20.30
2018-07-28T20:26:07.101Z,20.10
2018-07-28T20:31:12.613Z,20.00
2018-07-28T20:36:17.348Z,20.00
2018-07-28T20:41:22.960Z,19.90
2018-07-28T20:46:27.531Z,19.90
2018-07-28T20:51:32.179Z,19.90
2018-07-28T20:56:37.018Z,19.80
2018-07-28T21:01:42.972Z,19.70
2018-07-28T21:06:48.378Z,19.70
2018-07-28T21:11:53.461Z,19.60
2018-07-28T21:16:58.714Z,19.60
2018-07-28T21:22:03.521Z,19.50
2018-07-28T21:27:08.967Z,19.40
2018-07-28T21:32:13.716Z,19.30
2018-07-28T21:37:22.059Z,19.20
2018-07-28T21:42:26.998Z,19.10
2018-07-28T21:47:31.965Z,19.10
2018-07-28T21:52:36.780Z,19.10
2018-07-28T21:57:41.506Z,19.10
2018-07-28T22:02:46.332Z,19.10
2018-07-28T22:07:52.413Z,19.10
2018-07-28T22:12:57.273Z,19.10
2018-07-28T22:18:02.121Z,19.10
2018-07-28T22:23:07.336Z,19.00
2018-07-28T22:28:12.288Z,18.90
2018-07-28T22:33:17.526Z,18.80
2018-07-28T22:38:22.227Z,18.70
2018-07-28T22:43:26.997Z,18.60
2018-07-28T22:48:32.963Z,18.60
2018-07-28T22:53:37.692Z,18.60
2018-07-28T22:58:43.039Z,18.70
2018-07-28T23:03:47.716Z,18.80
2018-07-28T23:08:53.173Z,18.70
2018-07-28T23:13:57.867Z,18.50
2018-07-28T23:19:02.894Z,18.30
2018-07-28T23:24:07.645Z,18.10
2018-07-28T23:29:12.416Z,18.10
2018-07-28T23:34:17.128Z,18.20
2018-07-28T23:39:21.857Z,18.20
2018-07-28T23:44:26.628Z,18.20
2018-07-28T23:49:31.550Z,18.10
2018-07-28T23:54:36.565Z,17.90
2018-07-28T23:59:41.831Z,17.90
